createdAt,value
2023-03-26T00:01:50.021Z,9.13
2023-03-26T00:04:21.919Z,9.04
2023-03-26T00:06:51.395Z,9.00
2023-03-26T00:09:20.520Z,9.01
2023-03-26T00:11:51.424Z,9.04
2023-03-26T00:14:20.509Z,9.04
2023-03-26T00:16:49.977Z,8.96
2023-03-26T00:19:19.119Z,9.03
2023-03-26T00:21:48.752Z,9.08
2023-03-26T00:24:17.913Z,9.07
2023-03-26T00:26:53.485Z,9.16
2023-03-26T00:29:24.746Z,9.10
2023-03-26T00:31:54.392Z,9.09
2023-03-26T00:34:25.023Z,9.12
2023-03-26T00:36:55.068Z,9.18
2023-03-26T00:39:24.690Z,9.17
2023-03-26T00:41:54.788Z,9.21
2023-03-26T00:44:25.534Z,9.18
2023-03-26T00:46:55.019Z,9.15
2023-03-26T00:49:26.857Z,9.20
2023-03-26T00:51:56.273Z,9.19
2023-03-26T00:54:25.375Z,9.17
2023-03-26T00:56:56.153Z,9.25
2023-03-26T00:59:30.399Z,9.13
2023-03-26T01:02:00.433Z,9.14
2023-03-26T01:04:31.479Z,9.21
2023-03-26T01:07:02.925Z,9.24
2023-03-26T01:09:36.618Z,9.27
2023-03-26T01:12:07.754Z,9.20
2023-03-26T01:14:38.263Z,9.25
2023-03-26T01:17:08.141Z,9.13
2023-03-26T01:19:38.651Z,9.08
2023-03-26T01:22:09.761Z,9.15
2023-03-26T01:24:40.327Z,9.09
2023-03-26T01:27:11.626Z,9.21
2023-03-26T01:29:43.158Z,9.23
2023-03-26T01:32:15.782Z,9.20
2023-03-26T01:34:49.890Z,9.20
2023-03-26T01:37:21.073Z,9.17
2023-03-26T01:39:53.043Z,9.16
2023-03-26T01:42:23.427Z,9.17
2023-03-26T01:44:54.414Z,9.16
2023-03-26T01:47:24.000Z,9.06
2023-03-26T01:49:53.132Z,9.16
2023-03-26T01:52:25.368Z,9.13
2023-03-26T01:54:56.284Z,9.15
2023-03-26T01:57:28.953Z,9.13
2023-03-26T02:00:11.438Z,9.09
2023-03-26T02:02:43.351Z,9.12
2023-03-26T02:05:14.081Z,9.16
2023-03-26T02:07:43.789Z,9.16
2023-03-26T02:10:15.968Z,9.20
2023-03-26T02:12:45.475Z,9.20
2023-03-26T02:15:14.776Z,9.22
2023-03-26T02:17:44.250Z,9.24
2023-03-26T02:20:14.526Z,9.26
2023-03-26T02:22:46.094Z,9.29
2023-03-26T02:25:17.564Z,9.32
2023-03-26T02:27:47.369Z,9.35
2023-03-26T02:30:17.354Z,9.35
2023-03-26T02:32:46.851Z,9.36
2023-03-26T02:35:16.259Z,9.34
2023-03-26T02:37:47.033Z,9.38
2023-03-26T02:40:18.095Z,9.35
2023-03-26T02:42:47.585Z,9.38
2023-03-26T02:45:16.845Z,9.39
2023-03-26T02:47:46.518Z,9.40
2023-03-26T02:50:16.566Z,9.42
2023-03-26T02:52:49.161Z,9.43
2023-03-26T02:55:19.748Z,9.46
2023-03-26T02:57:49.140Z,9.45
2023-03-26T03:00:18.504Z,9.44
2023-03-26T03:02:48.656Z,9.45
2023-03-26T03:05:18.573Z,9.52
2023-03-26T03:07:48.081Z,9.46
2023-03-26T03:10:21.950Z,9.45
2023-03-26T03:12:52.836Z,9.50
2023-03-26T03:15:21.856Z,9.54
2023-03-26T03:17:51.633Z,9.54
2023-03-26T03:20:22.115Z,9.58
2023-03-26T03:22:51.572Z,9.60
2023-03-26T03:25:22.328Z,9.61
2023-03-26T03:27:54.068Z,9.61
2023-03-26T03:30:23.323Z,9.62
2023-03-26T03:32:52.741Z,9.62
2023-03-26T03:35:21.779Z,9.62
2023-03-26T03:37:51.222Z,9.62
2023-03-26T03:40:20.412Z,9.62
2023-03-26T03:42:49.802Z,9.63
2023-03-26T03:45:20.508Z,9.57
2023-03-26T03:47:49.975Z,9.58
2023-03-26T03:50:19.168Z,9.63
2023-03-26T03:52:48.694Z,9.59
2023-03-26T03:55:17.950Z,9.61
2023-03-26T03:57:47.687Z,9.62
2023-03-26T04:00:17.257Z,9.59
2023-03-26T04:02:48.267Z,9.60
2023-03-26T04:05:17.526Z,9.56
2023-03-26T04:07:47.032Z,9.60
2023-03-26T04:10:16.295Z,9.63
2023-03-26T04:12:45.834Z,9.63
2023-03-26T04:15:14.921Z,9.62
2023-03-26T04:17:45.087Z,9.62
2023-03-26T04:20:16.174Z,9.63
2023-03-26T04:22:45.822Z,9.64
2023-03-26T04:25:15.600Z,9.65
2023-03-26T04:27:45.203Z,9.64
2023-03-26T04:30:15.749Z,9.63
2023-03-26T04:32:45.309Z,9.67
2023-03-26T04:35:16.732Z,9.66
2023-03-26T04:37:46.365Z,9.66
2023-03-26T04:40:16.059Z,9.66
2023-03-26T04:42:46.265Z,9.69
2023-03-26T04:45:16.042Z,9.70
2023-03-26T04:47:46.866Z,9.65
2023-03-26T04:50:17.575Z,9.68
2023-03-26T04:52:47.077Z,9.69
2023-03-26T04:55:18.774Z,9.67
2023-03-26T04:57:48.562Z,9.64
2023-03-26T05:00:19.655Z,9.69
2023-03-26T05:02:50.629Z,9.69
2023-03-26T05:05:21.304Z,9.74
2023-03-26T05:07:50.720Z,9.75
2023-03-26T05:10:20.743Z,9.74
2023-03-26T05:12:50.189Z,9.75
2023-03-26T05:15:19.423Z,9.79
2023-03-26T05:17:49.052Z,9.79
2023-03-26T05:20:21.019Z,9.81
2023-03-26T05:22:52.168Z,9.75
2023-03-26T05:25:21.313Z,9.75
2023-03-26T05:27:50.786Z,9.73
2023-03-26T05:30:20.659Z,9.67
2023-03-26T05:32:50.506Z,9.58
2023-03-26T05:35:20.253Z,9.59
2023-03-26T05:37:49.785Z,9.56
2023-03-26T05:40:21.509Z,9.43
2023-03-26T05:42:51.465Z,9.58
2023-03-26T05:45:22.411Z,9.57
2023-03-26T05:47:54.342Z,9.55
2023-03-26T05:50:23.924Z,9.47
2023-03-26T05:52:53.382Z,9.54
2023-03-26T05:55:23.892Z,9.49
2023-03-26T05:57:53.388Z,9.54
2023-03-26T06:00:24.333Z,9.50
2023-03-26T06:02:56.575Z,9.49
2023-03-26T06:05:26.992Z,9.51
2023-03-26T06:07:56.397Z,9.57
2023-03-26T06:10:26.908Z,9.56
2023-03-26T06:12:56.395Z,9.56
2023-03-26T06:15:25.565Z,9.58
2023-03-26T06:17:54.994Z,9.63
2023-03-26T06:20:24.089Z,9.63
2023-03-26T06:22:53.518Z,9.68
2023-03-26T06:25:22.704Z,9.65
2023-03-26T06:27:53.558Z,9.60
2023-03-26T06:30:22.690Z,9.66
2023-03-26T06:32:52.336Z,9.58
2023-03-26T06:35:21.477Z,9.56
2023-03-26T06:37:51.154Z,9.65
2023-03-26T06:40:20.492Z,9.57
2023-03-26T06:43:09.218Z,9.52
2023-03-26T06:45:40.772Z,9.49
2023-03-26T06:48:10.346Z,9.60
2023-03-26T06:50:39.443Z,9.64
2023-03-26T06:53:09.806Z,9.67
2023-03-26T06:55:38.949Z,9.66
2023-03-26T06:58:08.476Z,9.62
2023-03-26T07:00:37.614Z,9.71
2023-03-26T07:03:08.663Z,9.69
2023-03-26T07:05:37.780Z,9.65
2023-03-26T07:08:07.348Z,9.64
2023-03-26T07:10:36.499Z,9.78
2023-03-26T07:13:06.081Z,9.82
2023-03-26T07:15:35.333Z,9.86
2023-03-26T07:18:05.108Z,9.83
2023-03-26T07:20:38.747Z,9.85
2023-03-26T07:23:15.620Z,9.88
2023-03-26T07:25:45.234Z,9.88
2023-03-26T07:28:15.552Z,10.01
2023-03-26T07:30:48.472Z,9.95
2023-03-26T07:33:20.001Z,10.00
2023-03-26T07:35:52.198Z,10.00
2023-03-26T07:38:27.844Z,10.04
2023-03-26T07:40:58.807Z,9.89
2023-03-26T07:43:32.445Z,9.94
2023-03-26T07:46:02.204Z,9.97
2023-03-26T07:48:34.338Z,10.06
2023-03-26T07:51:06.006Z,10.06
2023-03-26T07:53:35.710Z,9.89
2023-03-26T07:56:07.227Z,9.86
2023-03-26T07:58:48.473Z,10.00
2023-03-26T08:01:19.227Z,9.92
2023-03-26T08:03:52.455Z,10.00
2023-03-26T08:06:24.518Z,9.95
2023-03-26T08:08:59.044Z,9.85
2023-03-26T08:11:30.653Z,9.80
2023-03-26T08:14:03.789Z,9.85
2023-03-26T08:16:34.276Z,9.91
2023-03-26T08:19:05.067Z,9.82
2023-03-26T08:21:36.472Z,9.71
2023-03-26T08:24:07.105Z,9.83
2023-03-26T08:26:38.791Z,9.70
2023-03-26T08:29:12.353Z,9.74
2023-03-26T08:31:41.635Z,9.67
2023-03-26T08:34:11.543Z,9.76
2023-03-26T08:36:42.366Z,9.89
2023-03-26T08:39:11.802Z,9.88
2023-03-26T08:41:49.792Z,9.97
2023-03-26T08:44:47.699Z,10.08
2023-03-26T08:47:40.750Z,10.08
2023-03-26T08:50:28.320Z,10.01
2023-03-26T08:53:12.052Z,9.95
2023-03-26T08:55:51.058Z,10.14
2023-03-26T08:58:32.310Z,10.20
2023-03-26T09:01:20.714Z,10.11
2023-03-26T09:04:04.646Z,10.11
2023-03-26T09:06:41.885Z,10.14
2023-03-26T09:09:31.731Z,10.19
2023-03-26T09:12:11.669Z,10.02
2023-03-26T09:15:04.191Z,10.01
2023-03-26T09:17:47.115Z,10.15
2023-03-26T09:20:42.937Z,10.32
2023-03-26T09:23:28.708Z,10.33
2023-03-26T09:26:04.782Z,10.43
2023-03-26T09:28:41.985Z,10.43
2023-03-26T09:31:16.938Z,10.54
2023-03-26T09:33:59.488Z,10.66
2023-03-26T09:36:37.793Z,10.72
2023-03-26T09:39:10.483Z,10.75
2023-03-26T09:41:42.473Z,10.76
2023-03-26T09:44:29.580Z,10.79
2023-03-26T09:47:19.920Z,10.82
2023-03-26T09:49:52.482Z,10.88
2023-03-26T09:52:42.950Z,10.88
2023-03-26T09:55:30.248Z,10.98
2023-03-26T09:58:20.224Z,10.97
2023-03-26T10:00:51.549Z,11.01
2023-03-26T10:03:23.471Z,10.98
2023-03-26T10:05:57.585Z,10.98
2023-03-26T10:08:35.597Z,10.95
2023-03-26T10:11:06.802Z,11.03
2023-03-26T10:13:37.956Z,11.02
2023-03-26T10:16:11.869Z,11.11
2023-03-26T10:18:45.032Z,11.20
2023-03-26T10:21:15.988Z,11.20
2023-03-26T10:23:57.229Z,11.09
2023-03-26T10:26:31.134Z,11.21
2023-03-26T10:29:07.139Z,11.32
2023-03-26T10:31:46.278Z,11.26
2023-03-26T10:34:28.806Z,11.18
2023-03-26T10:36:59.754Z,11.27
2023-03-26T10:39:46.724Z,11.32
2023-03-26T10:42:23.003Z,11.28
2023-03-26T10:45:09.735Z,11.25
2023-03-26T10:47:57.075Z,11.30
2023-03-26T10:50:39.810Z,11.23
2023-03-26T10:53:10.486Z,11.25
2023-03-26T10:55:39.884Z,11.28
2023-03-26T10:58:12.588Z,11.30
2023-03-26T11:00:43.939Z,11.39
2023-03-26T11:03:18.766Z,11.30
2023-03-26T11:05:50.227Z,11.49
2023-03-26T11:08:31.769Z,11.46
2023-03-26T11:11:03.085Z,11.46
2023-03-26T11:13:36.895Z,11.64
2023-03-26T11:16:06.504Z,11.57
2023-03-26T11:18:37.152Z,11.43
2023-03-26T11:21:18.622Z,11.48
2023-03-26T11:24:06.096Z,11.56
2023-03-26T11:26:39.358Z,11.51
2023-03-26T11:29:32.729Z,11.63
2023-03-26T11:32:04.092Z,11.66
2023-03-26T11:34:34.555Z,11.64
2023-03-26T11:37:05.459Z,11.57
2023-03-26T11:39:39.004Z,11.47
2023-03-26T11:42:08.951Z,11.34
2023-03-26T11:44:53.068Z,11.18
2023-03-26T11:47:24.006Z,11.16
2023-03-26T11:49:53.932Z,11.13
2023-03-26T11:52:25.930Z,11.34
2023-03-26T11:54:58.681Z,11.47
2023-03-26T11:57:28.695Z,11.37
2023-03-26T12:00:03.490Z,11.56
2023-03-26T12:02:40.963Z,11.60
2023-03-26T12:05:16.197Z,11.67
2023-03-26T12:07:53.874Z,11.67
2023-03-26T12:10:34.791Z,11.70
2023-03-26T12:13:17.525Z,11.64
2023-03-26T12:15:51.070Z,11.79
2023-03-26T12:18:24.734Z,11.82
2023-03-26T12:24:58.482Z,11.48
2023-03-26T12:27:33.262Z,11.33
2023-03-26T12:30:11.657Z,11.54
2023-03-26T12:32:46.274Z,11.48
2023-03-26T12:35:18.944Z,11.38
2023-03-26T12:37:48.606Z,11.34
2023-03-26T12:40:36.848Z,11.41
2023-03-26T12:44:51.110Z,11.34
2023-03-26T12:47:56.130Z,11.25
2023-03-26T12:49:16.691Z,11.38
2023-03-26T12:51:49.773Z,11.27
2023-03-26T12:54:29.814Z,11.20
2023-03-26T12:57:19.948Z,11.16
2023-03-26T12:59:51.626Z,11.19
2023-03-26T13:02:29.595Z,11.15
2023-03-26T13:05:06.415Z,11.19
2023-03-26T13:07:42.985Z,11.21
2023-03-26T13:10:33.281Z,11.02
2023-03-26T13:13:05.511Z,11.15
2023-03-26T13:15:43.916Z,11.17
2023-03-26T13:18:31.695Z,11.02
2023-03-26T13:21:02.232Z,11.06
2023-03-26T13:23:34.134Z,11.13
2023-03-26T13:26:06.270Z,11.03
2023-03-26T13:28:37.187Z,11.04
2023-03-26T13:31:07.503Z,11.13
2023-03-26T13:33:42.390Z,11.21
2023-03-26T13:36:23.375Z,11.17
2023-03-26T13:38:59.658Z,11.24
2023-03-26T13:41:32.492Z,11.35
2023-03-26T13:44:03.866Z,11.36
2023-03-26T13:46:33.979Z,11.53
2023-03-26T13:49:05.211Z,11.51
2023-03-26T13:51:36.570Z,11.71
2023-03-26T13:54:08.019Z,11.68
2023-03-26T13:56:38.404Z,11.66
2023-03-26T13:59:08.099Z,11.73
2023-03-26T14:01:41.232Z,11.76
2023-03-26T14:04:17.917Z,11.79
2023-03-26T14:06:48.894Z,11.83
2023-03-26T14:09:19.506Z,11.95
2023-03-26T14:11:51.504Z,11.92
2023-03-26T14:14:20.930Z,11.97
2023-03-26T14:16:51.678Z,12.10
2023-03-26T14:19:29.235Z,12.02
2023-03-26T14:22:00.386Z,11.97
2023-03-26T14:24:34.056Z,12.15
2023-03-26T14:27:08.441Z,11.87
2023-03-26T14:29:56.608Z,11.87
2023-03-26T14:32:30.962Z,12.18
2023-03-26T14:35:17.377Z,12.02
2023-03-26T14:38:06.249Z,12.10
2023-03-26T14:40:40.863Z,12.05
2023-03-26T14:43:18.381Z,12.34
2023-03-26T14:45:50.875Z,12.50
2023-03-26T14:48:29.195Z,12.58
2023-03-26T14:51:03.786Z,12.39
2023-03-26T14:53:34.683Z,12.39
2023-03-26T14:56:15.583Z,12.56
2023-03-26T14:59:05.850Z,12.34
2023-03-26T15:01:44.203Z,12.37
2023-03-26T15:04:27.214Z,12.26
2023-03-26T15:07:15.532Z,12.31
2023-03-26T15:10:14.822Z,12.08
2023-03-26T15:12:52.385Z,11.92
2023-03-26T15:15:40.464Z,11.80
2023-03-26T15:18:24.995Z,11.52
2023-03-26T15:21:05.673Z,11.47
2023-03-26T15:23:44.128Z,11.53
2023-03-26T15:26:31.144Z,11.60
2023-03-26T15:29:13.203Z,11.50
2023-03-26T15:31:57.745Z,11.56
2023-03-26T15:34:49.827Z,11.41
2023-03-26T15:37:37.664Z,11.32
2023-03-26T15:40:27.636Z,11.21
2023-03-26T15:43:01.617Z,11.22
2023-03-26T15:45:36.934Z,11.07
2023-03-26T15:48:21.242Z,11.15
2023-03-26T15:50:56.394Z,11.07
2023-03-26T15:53:29.558Z,11.06
2023-03-26T15:56:10.042Z,10.97
2023-03-26T15:58:43.572Z,10.93
2023-03-26T16:01:19.256Z,10.89
2023-03-26T16:03:50.581Z,10.76
2023-03-26T16:06:31.312Z,10.68
2023-03-26T16:09:08.054Z,10.58
2023-03-26T16:12:00.867Z,10.40
2023-03-26T16:14:41.625Z,10.32
2023-03-26T16:17:14.890Z,10.15
2023-03-26T16:19:57.076Z,10.08
2023-03-26T16:22:50.150Z,10.12
2023-03-26T16:25:28.546Z,9.80
2023-03-26T16:28:17.230Z,9.67
2023-03-26T16:30:48.152Z,9.44
2023-03-26T16:33:21.318Z,9.34
2023-03-26T16:36:06.430Z,9.31
2023-03-26T16:38:50.352Z,9.39
2023-03-26T16:41:22.184Z,9.08
2023-03-26T16:44:02.373Z,9.22
2023-03-26T16:46:39.558Z,8.99
2023-03-26T16:49:14.140Z,8.91
2023-03-26T16:51:53.596Z,8.91
2023-03-26T16:54:24.404Z,8.91
2023-03-26T16:56:55.775Z,8.85
2023-03-26T16:59:44.468Z,8.66
2023-03-26T17:02:17.474Z,8.62
2023-03-26T17:04:48.998Z,8.60
2023-03-26T17:07:18.540Z,8.50
2023-03-26T17:09:52.272Z,8.47
2023-03-26T17:12:24.190Z,8.49
2023-03-26T17:15:06.150Z,8.55
2023-03-26T17:17:45.515Z,8.43
2023-03-26T17:20:19.981Z,8.10
2023-03-26T17:22:51.745Z,8.07
2023-03-26T17:25:22.969Z,7.98
2023-03-26T17:27:53.741Z,7.93
2023-03-26T17:30:40.009Z,7.89
2023-03-26T17:33:13.610Z,7.80
2023-03-26T17:35:45.012Z,7.67
2023-03-26T17:38:33.102Z,7.58
2023-03-26T17:41:02.339Z,7.52
2023-03-26T17:43:36.540Z,7.62
2023-03-26T17:46:06.935Z,7.53
2023-03-26T17:48:37.834Z,7.56
2023-03-26T17:51:15.832Z,7.56
2023-03-26T17:53:45.403Z,7.48
2023-03-26T17:56:15.457Z,7.49
2023-03-26T17:58:45.378Z,7.37
2023-03-26T18:01:17.655Z,7.26
2023-03-26T18:03:49.710Z,7.16
2023-03-26T18:06:21.770Z,7.20
2023-03-26T18:08:55.728Z,7.16
2023-03-26T18:11:30.654Z,7.33
2023-03-26T18:14:17.990Z,7.31
2023-03-26T18:16:47.494Z,7.05
2023-03-26T18:19:19.623Z,6.99
2023-03-26T18:21:50.903Z,6.98
2023-03-26T18:24:26.690Z,7.03
2023-03-26T18:26:56.869Z,7.16
2023-03-26T18:29:27.394Z,7.08
2023-03-26T18:31:57.895Z,7.09
2023-03-26T18:34:29.433Z,7.06
2023-03-26T18:37:19.670Z,7.07
2023-03-26T18:40:02.535Z,7.08
2023-03-26T18:42:32.368Z,6.99
2023-03-26T18:45:05.298Z,6.97
2023-03-26T18:47:38.765Z,6.86
2023-03-26T18:50:09.489Z,6.86
2023-03-26T18:52:39.167Z,6.82
2023-03-26T18:55:12.059Z,6.86
2023-03-26T18:57:41.508Z,6.84
2023-03-26T19:00:18.688Z,6.88
2023-03-26T19:02:52.425Z,6.91
2023-03-26T19:05:22.342Z,6.85
2023-03-26T19:07:52.703Z,6.87
2023-03-26T19:10:27.920Z,6.84
2023-03-26T19:13:00.182Z,6.80
2023-03-26T19:15:29.832Z,6.78
2023-03-26T19:18:04.065Z,6.82
2023-03-26T19:20:40.818Z,6.75
2023-03-26T19:23:10.923Z,6.79
2023-03-26T19:25:42.847Z,6.68
2023-03-26T19:28:16.377Z,6.70
2023-03-26T19:30:46.181Z,6.70
2023-03-26T19:33:16.542Z,6.74
2023-03-26T19:35:48.308Z,6.74
2023-03-26T19:38:22.990Z,6.71
2023-03-26T19:40:54.832Z,6.72
2023-03-26T19:43:25.808Z,6.65
2023-03-26T19:45:59.640Z,6.59
2023-03-26T19:48:45.692Z,6.65
2023-03-26T19:51:20.503Z,6.66
2023-03-26T19:53:50.594Z,6.66
2023-03-26T19:56:22.234Z,6.67
2023-03-26T19:58:51.982Z,6.60
2023-03-26T20:01:22.258Z,6.59
2023-03-26T20:03:52.931Z,6.58
2023-03-26T20:06:41.651Z,6.60
2023-03-26T20:09:13.483Z,6.62
2023-03-26T20:11:46.731Z,6.61
2023-03-26T20:14:19.474Z,6.55
2023-03-26T20:16:50.956Z,6.57
2023-03-26T20:19:24.646Z,6.49
2023-03-26T20:21:56.574Z,6.55
2023-03-26T20:24:26.175Z,6.56
2023-03-26T20:26:57.996Z,6.50
2023-03-26T20:29:28.485Z,6.49
2023-03-26T20:31:58.126Z,6.49
2023-03-26T20:34:28.079Z,6.54
2023-03-26T20:37:01.250Z,6.62
2023-03-26T20:39:31.116Z,6.62
2023-03-26T20:42:02.089Z,6.62
2023-03-26T20:44:34.534Z,6.64
2023-03-26T20:47:04.186Z,6.63
2023-03-26T20:49:33.425Z,6.60
2023-03-26T20:52:02.777Z,6.55
2023-03-26T20:54:31.910Z,6.56
2023-03-26T20:57:02.722Z,6.50
2023-03-26T20:59:31.988Z,6.44
2023-03-26T21:02:01.633Z,6.44
2023-03-26T21:04:30.856Z,6.42
2023-03-26T21:07:07.202Z,6.41
2023-03-26T21:09:40.658Z,6.43
2023-03-26T21:12:16.920Z,6.37
2023-03-26T21:14:48.171Z,6.39
2023-03-26T21:17:18.447Z,6.41
2023-03-26T21:19:47.965Z,6.42
2023-03-26T21:27:11.821Z,6.42
2023-03-26T21:29:43.211Z,6.42
2023-03-26T21:32:12.620Z,6.40
2023-03-26T21:34:55.437Z,6.39
2023-03-26T21:37:27.810Z,6.40
2023-03-26T21:39:57.486Z,6.40
2023-03-26T21:42:29.516Z,6.37
2023-03-26T21:45:01.056Z,6.35
2023-03-26T21:47:30.444Z,6.37
2023-03-26T21:50:00.114Z,6.36
2023-03-26T21:52:30.337Z,6.37
2023-03-26T21:55:00.998Z,6.33
2023-03-26T21:57:34.094Z,6.30
2023-03-26T22:00:14.544Z,6.25
2023-03-26T22:02:49.743Z,6.18
2023-03-26T22:05:19.630Z,6.20
2023-03-26T22:07:52.320Z,6.24
2023-03-26T22:10:21.900Z,6.25
2023-03-26T22:12:51.102Z,6.23
2023-03-26T22:15:22.088Z,6.21
2023-03-26T22:17:55.811Z,6.15
2023-03-26T22:20:25.479Z,6.16
2023-03-26T22:22:55.431Z,6.00
2023-03-26T22:25:25.106Z,6.00
2023-03-26T22:27:54.251Z,5.98
2023-03-26T22:30:25.832Z,6.00
2023-03-26T22:32:55.034Z,6.03
2023-03-26T22:35:24.670Z,6.04
2023-03-26T22:38:00.771Z,5.84
2023-03-26T22:40:30.962Z,5.60
2023-03-26T22:43:00.396Z,5.39
2023-03-26T22:45:31.340Z,5.39
2023-03-26T22:48:03.089Z,5.50
2023-03-26T22:50:33.823Z,5.46
2023-03-26T22:53:02.932Z,5.32
2023-03-26T22:55:32.506Z,5.35
2023-03-26T22:58:01.591Z,5.43
2023-03-26T23:00:32.681Z,5.33
2023-03-26T23:03:02.007Z,5.34
2023-03-26T23:05:31.593Z,5.43
2023-03-26T23:08:01.113Z,5.64
2023-03-26T23:10:30.537Z,5.40
2023-03-26T23:13:03.280Z,5.34
2023-03-26T23:15:34.202Z,5.40
2023-03-26T23:18:03.404Z,5.35
2023-03-26T23:20:40.637Z,5.43
2023-03-26T23:23:09.980Z,5.33
2023-03-26T23:25:39.483Z,5.55
2023-03-26T23:28:08.537Z,5.60
2023-03-26T23:30:39.397Z,5.65
2023-03-26T23:33:09.111Z,5.69
2023-03-26T23:35:38.604Z,5.73
2023-03-26T23:38:08.340Z,5.82
2023-03-26T23:40:37.911Z,5.78
2023-03-26T23:43:07.009Z,5.84
2023-03-26T23:45:36.674Z,5.85
2023-03-26T23:48:07.530Z,5.80
2023-03-26T23:50:37.971Z,5.63
2023-03-26T23:53:07.270Z,5.76
2023-03-26T23:55:36.717Z,5.77
2023-03-26T23:58:06.101Z,5.71
